sensor_id;sensor_type;location;lat;lon;timestamp;pressure;altitude;pressure_sealevel;temperature;humidity
57628;BME280;43451;49.060;10.616;2023-02-15T00:01:48;98175.63;;;-1.36;100.00
57628;BME280;43451;49.060;10.616;2023-02-15T00:04:16;98177.44;;;-1.31;100.00
57628;BME280;43451;49.060;10.616;2023-02-15T00:06:41;98166.31;;;-1.38;100.00
57628;BME280;43451;49.060;10.616;2023-02-15T00:09:08;98165.53;;;-1.39;100.00
57628;BME280;43451;49.060;10.616;2023-02-15T00:11:34;98162.41;;;-1.51;100.00
57628;BME280;43451;49.060;10.616;2023-02-15T00:14:07;98163.16;;;-1.46;100.00
57628;BME280;43451;49.060;10.616;2023-02-15T00:16:33;98156.84;;;-1.55;100.00
57628;BME280;43451;49.060;10.616;2023-02-15T00:18:58;98153.72;;;-1.72;100.00
57628;BME280;43451;49.060;10.616;2023-02-15T00:21:27;98153.16;;;-1.64;100.00
57628;BME280;43451;49.060;10.616;2023-02-15T00:23:53;98157.50;;;-1.78;100.00
57628;BME280;43451;49.060;10.616;2023-02-15T00:26:19;98158.50;;;-1.69;100.00
57628;BME280;43451;49.060;10.616;2023-02-15T00:28:44;98154.25;;;-1.70;100.00
57628;BME280;43451;49.060;10.616;2023-02-15T00:31:11;98145.75;;;-1.72;100.00
57628;BME280;43451;49.060;10.616;2023-02-15T00:33:38;98149.41;;;-1.63;100.00
57628;BME280;43451;49.060;10.616;2023-02-15T00:36:05;98153.66;;;-1.62;100.00
57628;BME280;43451;49.060;10.616;2023-02-15T00:38:31;98155.44;;;-1.47;100.00
57628;BME280;43451;49.060;10.616;2023-02-15T00:40:58;98155.97;;;-1.45;100.00
57628;BME280;43451;49.060;10.616;2023-02-15T00:43:25;98151.91;;;-1.37;100.00
57628;BME280;43451;49.060;10.616;2023-02-15T00:45:51;98153.09;;;-1.54;100.00
57628;BME280;43451;49.060;10.616;2023-02-15T00:48:17;98145.06;;;-1.49;100.00
57628;BME280;43451;49.060;10.616;2023-02-15T00:50:48;98146.88;;;-1.44;100.00
57628;BME280;43451;49.060;10.616;2023-02-15T00:53:14;98143.66;;;-1.41;100.00
57628;BME280;43451;49.060;10.616;2023-02-15T00:55:39;98134.97;;;-1.52;100.00
57628;BME280;43451;49.060;10.616;2023-02-15T00:58:08;98139.75;;;-1.54;100.00
57628;BME280;43451;49.060;10.616;2023-02-15T01:00:34;98135.75;;;-1.51;100.00
57628;BME280;43451;49.060;10.616;2023-02-15T01:03:00;98141.34;;;-1.53;100.00
57628;BME280;43451;49.060;10.616;2023-02-15T01:05:26;98133.34;;;-1.53;100.00
57628;BME280;43451;49.060;10.616;2023-02-15T01:07:51;98139.00;;;-1.59;100.00
57628;BME280;43451;49.060;10.616;2023-02-15T01:10:17;98131.59;;;-1.68;100.00
57628;BME280;43451;49.060;10.616;2023-02-15T01:12:43;98125.50;;;-1.73;100.00
57628;BME280;43451;49.060;10.616;2023-02-15T01:15:09;98123.94;;;-1.79;100.00
57628;BME280;43451;49.060;10.616;2023-02-15T01:17:34;98121.81;;;-1.77;100.00
57628;BME280;43451;49.060;10.616;2023-02-15T01:19:59;98113.53;;;-1.76;100.00
57628;BME280;43451;49.060;10.616;2023-02-15T01:22:25;98120.75;;;-1.81;100.00
57628;BME280;43451;49.060;10.616;2023-02-15T01:24:51;98115.94;;;-1.74;100.00
57628;BME280;43451;49.060;10.616;2023-02-15T01:27:16;98114.00;;;-1.69;100.00
57628;BME280;43451;49.060;10.616;2023-02-15T01:29:41;98108.53;;;-1.82;100.00
57628;BME280;43451;49.060;10.616;2023-02-15T01:32:07;98107.19;;;-1.80;100.00
57628;BME280;43451;49.060;10.616;2023-02-15T01:34:33;98104.78;;;-1.81;100.00
57628;BME280;43451;49.060;10.616;2023-02-15T01:36:58;98116.44;;;-1.72;100.00
57628;BME280;43451;49.060;10.616;2023-02-15T01:39:24;98111.16;;;-1.77;100.00
57628;BME280;43451;49.060;10.616;2023-02-15T01:41:49;98111.63;;;-1.70;100.00
57628;BME280;43451;49.060;10.616;2023-02-15T01:45:11;98111.16;;;-1.77;100.00
57628;BME280;43451;49.060;10.616;2023-02-15T01:50:15;98103.59;;;-1.65;100.00
57628;BME280;43451;49.060;10.616;2023-02-15T01:53:15;98106.34;;;-1.75;100.00
57628;BME280;43451;49.060;10.616;2023-02-15T01:55:47;98095.88;;;-1.67;100.00
57628;BME280;43451;49.060;10.616;2023-02-15T01:58:16;98095.19;;;-1.77;100.00
57628;BME280;43451;49.060;10.616;2023-02-15T02:00:42;98090.13;;;-1.84;100.00
57628;BME280;43451;49.060;10.616;2023-02-15T02:03:08;98087.44;;;-1.79;100.00
57628;BME280;43451;49.060;10.616;2023-02-15T02:05:34;98089.31;;;-1.79;100.00
57628;BME280;43451;49.060;10.616;2023-02-15T02:08:01;98081.97;;;-1.98;100.00
57628;BME280;43451;49.060;10.616;2023-02-15T02:10:28;98087.06;;;-2.01;100.00
57628;BME280;43451;49.060;10.616;2023-02-15T02:13:04;98085.16;;;-1.96;100.00
57628;BME280;43451;49.060;10.616;2023-02-15T02:21:24;98075.00;;;-1.89;100.00
57628;BME280;43451;49.060;10.616;2023-02-15T02:26:47;98076.56;;;-1.88;100.00
57628;BME280;43451;49.060;10.616;2023-02-15T02:35:28;98069.88;;;-1.80;100.00
57628;BME280;43451;49.060;10.616;2023-02-15T02:38:11;98069.91;;;-1.85;100.00
57628;BME280;43451;49.060;10.616;2023-02-15T02:40:55;98076.06;;;-1.90;100.00
57628;BME280;43451;49.060;10.616;2023-02-15T02:43:31;98069.97;;;-1.90;100.00
57628;BME280;43451;49.060;10.616;2023-02-15T02:46:30;98067.00;;;-1.89;100.00
57628;BME280;43451;49.060;10.616;2023-02-15T02:48:57;98066.22;;;-1.89;100.00
57628;BME280;43451;49.060;10.616;2023-02-15T02:51:23;98063.25;;;-1.88;100.00
57628;BME280;43451;49.060;10.616;2023-02-15T02:53:54;98055.81;;;-1.85;100.00
57628;BME280;43451;49.060;10.616;2023-02-15T02:56:48;98060.81;;;-1.79;100.00
57628;BME280;43451;49.060;10.616;2023-02-15T02:59:23;98061.22;;;-1.96;100.00
57628;BME280;43451;49.060;10.616;2023-02-15T03:02:15;98051.59;;;-1.97;100.00
57628;BME280;43451;49.060;10.616;2023-02-15T03:04:46;98056.91;;;-1.92;100.00
57628;BME280;43451;49.060;10.616;2023-02-15T03:07:18;98057.06;;;-1.78;100.00
57628;BME280;43451;49.060;10.616;2023-02-15T03:09:50;98061.66;;;-1.83;100.00
57628;BME280;43451;49.060;10.616;2023-02-15T03:12:19;98064.31;;;-1.83;100.00
57628;BME280;43451;49.060;10.616;2023-02-15T03:14:48;98064.41;;;-1.99;100.00
57628;BME280;43451;49.060;10.616;2023-02-15T03:17:17;98069.44;;;-1.92;100.00
57628;BME280;43451;49.060;10.616;2023-02-15T03:19:45;98064.56;;;-1.80;100.00
57628;BME280;43451;49.060;10.616;2023-02-15T03:22:23;98069.81;;;-1.70;100.00
57628;BME280;43451;49.060;10.616;2023-02-15T03:25:01;98067.56;;;-1.92;100.00
57628;BME280;43451;49.060;10.616;2023-02-15T03:27:34;98069.44;;;-1.92;100.00
57628;BME280;43451;49.060;10.616;2023-02-15T03:30:02;98069.97;;;-1.90;100.00
57628;BME280;43451;49.060;10.616;2023-02-15T03:32:30;98065.44;;;-1.95;100.00
57628;BME280;43451;49.060;10.616;2023-02-15T03:34:57;98071.56;;;-1.94;100.00
57628;BME280;43451;49.060;10.616;2023-02-15T03:37:36;98067.31;;;-1.90;100.00
57628;BME280;43451;49.060;10.616;2023-02-15T03:40:21;98073.38;;;-1.84;100.00
57628;BME280;43451;49.060;10.616;2023-02-15T03:43:24;98070.16;;;-1.81;100.00
57628;BME280;43451;49.060;10.616;2023-02-15T03:45:57;98072.50;;;-1.75;100.00
57628;BME280;43451;49.060;10.616;2023-02-15T03:48:41;98065.66;;;-1.86;100.00
57628;BME280;43451;49.060;10.616;2023-02-15T03:51:12;98066.94;;;-1.78;100.00
57628;BME280;43451;49.060;10.616;2023-02-15T03:54:09;98062.38;;;-1.73;100.00
57628;BME280;43451;49.060;10.616;2023-02-15T03:56:42;98057.06;;;-1.78;100.00
57628;BME280;43451;49.060;10.616;2023-02-15T03:59:27;98049.94;;;-1.82;100.00
57628;BME280;43451;49.060;10.616;2023-02-15T04:02:21;98051.59;;;-1.92;100.00
57628;BME280;43451;49.060;10.616;2023-02-15T04:04:49;98049.44;;;-1.90;100.00
57628;BME280;43451;49.060;10.616;2023-02-15T04:07:14;98055.25;;;-1.82;100.00
57628;BME280;43451;49.060;10.616;2023-02-15T04:09:40;98055.00;;;-1.86;100.00
57628;BME280;43451;49.060;10.616;2023-02-15T04:12:24;98054.47;;;-1.83;100.00
57628;BME280;43451;49.060;10.616;2023-02-15T04:14:49;98059.94;;;-1.69;100.00
57628;BME280;43451;49.060;10.616;2023-02-15T04:17:36;98054.91;;;-1.71;100.00
57628;BME280;43451;49.060;10.616;2023-02-15T04:20:01;98048.84;;;-1.81;100.00
57628;BME280;43451;49.060;10.616;2023-02-15T04:22:45;98046.97;;;-1.81;100.00
57628;BME280;43451;49.060;10.616;2023-02-15T04:25:29;98048.59;;;-1.85;100.00
57628;BME280;43451;49.060;10.616;2023-02-15T04:27:55;98044.59;;;-1.82;100.00
57628;BME280;43451;49.060;10.616;2023-02-15T04:30:25;98052.63;;;-1.88;100.00
57628;BME280;43451;49.060;10.616;2023-02-15T04:32:50;98056.13;;;-1.92;100.00
57628;BME280;43451;49.060;10.616;2023-02-15T04:35:16;98057.47;;;-1.95;100.00
57628;BME280;43451;49.060;10.616;2023-02-15T04:37:42;98057.69;;;-1.91;100.00
57628;BME280;43451;49.060;10.616;2023-02-15T04:40:11;98057.69;;;-1.91;100.00
57628;BME280;43451;49.060;10.616;2023-02-15T04:42:36;98049.50;;;-2.00;100.00
57628;BME280;43451;49.060;10.616;2023-02-15T04:45:02;98050.47;;;-1.85;100.00
57628;BME280;43451;49.060;10.616;2023-02-15T04:47:28;98042.81;;;-1.92;100.00
57628;BME280;43451;49.060;10.616;2023-02-15T04:49:53;98041.78;;;-2.01;100.00
57628;BME280;43451;49.060;10.616;2023-02-15T04:52:19;98049.00;;;-2.07;100.00
57628;BME280;43451;49.060;10.616;2023-02-15T04:54:45;98035.91;;;-1.93;100.00
57628;BME280;43451;49.060;10.616;2023-02-15T04:57:10;98034.06;;;-1.98;100.00
57628;BME280;43451;49.060;10.616;2023-02-15T04:59:36;98044.44;;;-1.96;100.00
57628;BME280;43451;49.060;10.616;2023-02-15T05:02:01;98037.44;;;-1.87;100.00
57628;BME280;43451;49.060;10.616;2023-02-15T05:04:27;98027.41;;;-2.00;100.00
57628;BME280;43451;49.060;10.616;2023-02-15T05:06:52;98034.53;;;-1.91;100.00
57628;BME280;43451;49.060;10.616;2023-02-15T05:09:18;98034.38;;;-2.10;100.00
57628;BME280;43451;49.060;10.616;2023-02-15T05:11:43;98035.16;;;-2.04;100.00
57628;BME280;43451;49.060;10.616;2023-02-15T05:14:09;98040.53;;;-2.09;100.00
57628;BME280;43451;49.060;10.616;2023-02-15T05:16:34;98029.69;;;-2.23;100.00
57628;BME280;43451;49.060;10.616;2023-02-15T05:19:00;98027.06;;;-2.28;100.00
57628;BME280;43451;49.060;10.616;2023-02-15T05:21:25;98035.56;;;-2.26;100.00
57628;BME280;43451;49.060;10.616;2023-02-15T05:23:51;98032.59;;;-2.19;100.00
57628;BME280;43451;49.060;10.616;2023-02-15T05:26:19;98035.75;;;-2.12;100.00
57628;BME280;43451;49.060;10.616;2023-02-15T05:29:03;98038.91;;;-2.10;100.00
57628;BME280;43451;49.060;10.616;2023-02-15T05:31:30;98041.50;;;-2.00;100.00
57628;BME280;43451;49.060;10.616;2023-02-15T05:33:57;98039.97;;;-2.06;100.00
57628;BME280;43451;49.060;10.616;2023-02-15T05:36:22;98031.78;;;-2.15;100.00
57628;BME280;43451;49.060;10.616;2023-02-15T05:38:48;98034.16;;;-2.13;100.00
57628;BME280;43451;49.060;10.616;2023-02-15T05:41:13;98029.91;;;-2.19;100.00
57628;BME280;43451;49.060;10.616;2023-02-15T05:43:39;98031.78;;;-2.20;100.00
57628;BME280;43451;49.060;10.616;2023-02-15T05:46:05;98034.75;;;-2.21;100.00
57628;BME280;43451;49.060;10.616;2023-02-15T05:48:31;98023.53;;;-2.18;100.00
57628;BME280;43451;49.060;10.616;2023-02-15T05:51:09;98034.69;;;-2.16;100.00
57628;BME280;43451;49.060;10.616;2023-02-15T05:53:36;98030.44;;;-2.12;100.00
57628;BME280;43451;49.060;10.616;2023-02-15T05:56:02;98032.28;;;-2.13;100.00
57628;BME280;43451;49.060;10.616;2023-02-15T05:58:34;98038.97;;;-2.15;100.00
57628;BME280;43451;49.060;10.616;2023-02-15T06:01:10;98036.31;;;-2.15;100.00
57628;BME280;43451;49.060;10.616;2023-02-15T06:03:36;98038.56;;;-2.38;100.00
57628;BME280;43451;49.060;10.616;2023-02-15T06:06:01;98036.97;;;-2.39;100.00
57628;BME280;43451;49.060;10.616;2023-02-15T06:08:29;98038.50;;;-2.27;100.00
57628;BME280;43451;49.060;10.616;2023-02-15T06:10:55;98041.16;;;-2.27;100.00
57628;BME280;43451;49.060;10.616;2023-02-15T06:13:20;98035.84;;;-2.27;100.00
57628;BME280;43451;49.060;10.616;2023-02-15T06:15:46;98030.75;;;-2.24;100.00
57628;BME280;43451;49.060;10.616;2023-02-15T06:18:12;98035.25;;;-2.19;100.00
57628;BME280;43451;49.060;10.616;2023-02-15T06:20:38;98039.00;;;-2.20;100.00
57628;BME280;43451;49.060;10.616;2023-02-15T06:23:03;98035.56;;;-2.26;100.00
57628;BME280;43451;49.060;10.616;2023-02-15T06:25:29;98042.19;;;-2.18;100.00
57628;BME280;43451;49.060;10.616;2023-02-15T06:27:54;98047.81;;;-2.30;100.00
57628;BME280;43451;49.060;10.616;2023-02-15T06:30:20;98043.53;;;-2.21;100.00
57628;BME280;43451;49.060;10.616;2023-02-15T06:32:45;98047.00;;;-2.25;100.00
57628;BME280;43451;49.060;10.616;2023-02-15T06:35:11;98053.97;;;-2.35;100.00
57628;BME280;43451;49.060;10.616;2023-02-15T06:37:37;98047.03;;;-2.30;100.00
57628;BME280;43451;49.060;10.616;2023-02-15T06:40:02;98052.84;;;-2.28;100.00
57628;BME280;43451;49.060;10.616;2023-02-15T06:42:29;98045.16;;;-2.25;100.00
57628;BME280;43451;49.060;10.616;2023-02-15T06:44:54;98051.75;;;-2.22;100.00
57628;BME280;43451;49.060;10.616;2023-02-15T06:47:20;98058.47;;;-2.25;100.00
57628;BME280;43451;49.060;10.616;2023-02-15T06:49:45;98065.59;;;-2.20;100.00
57628;BME280;43451;49.060;10.616;2023-02-15T06:52:11;98057.06;;;-2.12;100.00
57628;BME280;43451;49.060;10.616;2023-02-15T06:54:36;98066.38;;;-2.15;100.00
57628;BME280;43451;49.060;10.616;2023-02-15T06:57:02;98056.06;;;-2.26;100.00
57628;BME280;43451;49.060;10.616;2023-02-15T06:59:27;98056.53;;;-2.19;100.00
57628;BME280;43451;49.060;10.616;2023-02-15T07:01:52;98065.63;;;-2.25;100.00
57628;BME280;43451;49.060;10.616;2023-02-15T07:04:18;98057.94;;;-2.32;100.00
57628;BME280;43451;49.060;10.616;2023-02-15T07:06:43;98053.94;;;-2.29;100.00
57628;BME280;43451;49.060;10.616;2023-02-15T07:09:09;98047.81;;;-2.25;100.00
57628;BME280;43451;49.060;10.616;2023-02-15T07:11:34;98050.19;;;-2.23;100.00
57628;BME280;43451;49.060;10.616;2023-02-15T07:14:18;98053.63;;;-2.18;100.00
57628;BME280;43451;49.060;10.616;2023-02-15T07:16:43;98051.75;;;-2.22;100.00
57628;BME280;43451;49.060;10.616;2023-02-15T07:19:09;98050.91;;;-2.13;100.00
57628;BME280;43451;49.060;10.616;2023-02-15T07:21:35;98047.44;;;-2.08;100.00
57628;BME280;43451;49.060;10.616;2023-02-15T07:24:01;98048.00;;;-2.16;100.00
57628;BME280;43451;49.060;10.616;2023-02-15T07:26:27;98049.81;;;-2.06;100.00
57628;BME280;43451;49.060;10.616;2023-02-15T07:28:52;98040.72;;;-2.00;100.00
57628;BME280;43451;49.060;10.616;2023-02-15T07:31:18;98049.47;;;-1.95;100.00
57628;BME280;43451;49.060;10.616;2023-02-15T07:33:44;98043.63;;;-1.97;100.00
57628;BME280;43451;49.060;10.616;2023-02-15T07:36:10;98047.59;;;-1.94;100.00
57628;BME280;43451;49.060;10.616;2023-02-15T07:38:39;98043.75;;;-1.78;100.00
57628;BME280;43451;49.060;10.616;2023-02-15T07:41:07;98043.25;;;-1.80;100.00
57628;BME280;43451;49.060;10.616;2023-02-15T07:43:34;98055.22;;;-1.77;100.00
57628;BME280;43451;49.060;10.616;2023-02-15T07:46:01;98053.03;;;-1.70;100.00
57628;BME280;43451;49.060;10.616;2023-02-15T07:48:27;98048.53;;;-1.75;100.00
57628;BME280;43451;49.060;10.616;2023-02-15T07:50:53;98051.38;;;-1.61;100.00
57628;BME280;43451;49.060;10.616;2023-02-15T07:53:18;98052.28;;;-1.81;100.00
57628;BME280;43451;49.060;10.616;2023-02-15T07:55:44;98048.81;;;-1.76;100.00
57628;BME280;43451;49.060;10.616;2023-02-15T07:58:09;98054.97;;;-1.81;100.00
57628;BME280;43451;49.060;10.616;2023-02-15T08:00:35;98045.63;;;-1.78;100.00
57628;BME280;43451;49.060;10.616;2023-02-15T08:03:23;98049.84;;;-1.72;100.00
57628;BME280;43451;49.060;10.616;2023-02-15T08:05:55;98048.19;;;-1.68;100.00
57628;BME280;43451;49.060;10.616;2023-02-15T08:08:20;98052.72;;;-1.64;100.00
57628;BME280;43451;49.060;10.616;2023-02-15T08:14:04;98044.97;;;-1.65;100.00
57628;BME280;43451;49.060;10.616;2023-02-15T08:19:04;98041.34;;;-1.74;100.00
57628;BME280;43451;49.060;10.616;2023-02-15T08:21:30;98039.66;;;-1.65;100.00
57628;BME280;43451;49.060;10.616;2023-02-15T08:23:57;98041.22;;;-1.59;100.00
57628;BME280;43451;49.060;10.616;2023-02-15T08:26:23;98046.06;;;-1.66;100.00
57628;BME280;43451;49.060;10.616;2023-02-15T08:28:50;98037.44;;;-1.53;100.00
57628;BME280;43451;49.060;10.616;2023-02-15T08:31:16;98040.53;;;-1.41;100.00
57628;BME280;43451;49.060;10.616;2023-02-15T08:33:43;98040.19;;;-1.63;100.00
57628;BME280;43451;49.060;10.616;2023-02-15T08:36:15;98040.75;;;-1.66;100.00
57628;BME280;43451;49.060;10.616;2023-02-15T08:38:41;98040.28;;;-1.73;100.00
57628;BME280;43451;49.060;10.616;2023-02-15T08:41:23;98041.16;;;-1.83;100.00
57628;BME280;43451;49.060;10.616;2023-02-15T08:43:54;98038.94;;;-1.71;100.00
57628;BME280;43451;49.060;10.616;2023-02-15T08:46:22;98031.53;;;-1.84;100.00
57628;BME280;43451;49.060;10.616;2023-02-15T08:48:48;98037.75;;;-1.94;100.00
57628;BME280;43451;49.060;10.616;2023-02-15T08:51:23;98030.75;;;-1.84;100.00
57628;BME280;43451;49.060;10.616;2023-02-15T08:53:52;98026.94;;;-1.73;100.00
57628;BME280;43451;49.060;10.616;2023-02-15T08:56:20;98034.84;;;-1.63;100.00
57628;BME280;43451;49.060;10.616;2023-02-15T08:58:46;98033.19;;;-1.54;100.00
57628;BME280;43451;49.060;10.616;2023-02-15T09:01:15;98026.78;;;-1.53;100.00
57628;BME280;43451;49.060;10.616;2023-02-15T09:03:45;98021.66;;;-1.49;100.00
57628;BME280;43451;49.060;10.616;2023-02-15T09:06:11;98025.53;;;-1.36;100.00
57628;BME280;43451;49.060;10.616;2023-02-15T09:08:36;98026.59;;;-1.32;100.00
57628;BME280;43451;49.060;10.616;2023-02-15T09:11:17;98029.63;;;-1.44;100.00
57628;BME280;43451;49.060;10.616;2023-02-15T09:13:48;98034.44;;;-1.17;100.00
57628;BME280;43451;49.060;10.616;2023-02-15T09:16:14;98036.63;;;-1.24;100.00
57628;BME280;43451;49.060;10.616;2023-02-15T09:18:42;98026.63;;;-1.37;100.00
57628;BME280;43451;49.060;10.616;2023-02-15T09:21:13;98028.38;;;-1.23;100.00
57628;BME280;43451;49.060;10.616;2023-02-15T09:23:40;98029.41;;;-1.48;100.00
57628;BME280;43451;49.060;10.616;2023-02-15T09:26:08;98035.75;;;-1.44;100.00
57628;BME280;43451;49.060;10.616;2023-02-15T09:28:35;98025.94;;;-1.19;100.00
57628;BME280;43451;49.060;10.616;2023-02-15T09:31:14;98035.81;;;-1.20;100.00
57628;BME280;43451;49.060;10.616;2023-02-15T09:33:41;98027.72;;;-1.38;100.00
57628;BME280;43451;49.060;10.616;2023-02-15T09:38:39;98030.25;;;-1.23;100.00
57628;BME280;43451;49.060;10.616;2023-02-15T09:43:46;98037.59;;;-1.15;100.00
57628;BME280;43451;49.060;10.616;2023-02-15T09:48:53;98024.91;;;-1.23;100.00
57628;BME280;43451;49.060;10.616;2023-02-15T09:54:24;98025.13;;;-0.96;100.00
57628;BME280;43451;49.060;10.616;2023-02-15T09:56:58;98021.28;;;-0.84;100.00
57628;BME280;43451;49.060;10.616;2023-02-15T10:10:41;98028.19;;;-0.59;100.00
57628;BME280;43451;49.060;10.616;2023-02-15T10:13:43;98028.19;;;-0.59;100.00
57628;BME280;43451;49.060;10.616;2023-02-15T10:16:26;98034.88;;;-0.62;100.00
57628;BME280;43451;49.060;10.616;2023-02-15T10:19:07;98022.47;;;-0.72;100.00
57628;BME280;43451;49.060;10.616;2023-02-15T10:21:47;98022.63;;;-0.63;100.00
57628;BME280;43451;49.060;10.616;2023-02-15T10:24:29;98026.16;;;-0.67;100.00
57628;BME280;43451;49.060;10.616;2023-02-15T10:27:13;98031.56;;;-0.73;100.00
57628;BME280;43451;49.060;10.616;2023-02-15T10:32:24;98010.22;;;-0.73;100.00
57628;BME280;43451;49.060;10.616;2023-02-15T10:40:32;98013.13;;;-0.50;100.00
57628;BME280;43451;49.060;10.616;2023-02-15T10:54:39;97992.34;;;-0.53;100.00
57628;BME280;43451;49.060;10.616;2023-02-15T10:57:12;98003.25;;;-0.31;100.00
57628;BME280;43451;49.060;10.616;2023-02-15T11:02:42;97999.34;;;-0.01;100.00
57628;BME280;43451;49.060;10.616;2023-02-15T11:08:10;97988.72;;;0.13;100.00
57628;BME280;43451;49.060;10.616;2023-02-15T11:10:47;97989.50;;;0.14;100.00
57628;BME280;43451;49.060;10.616;2023-02-15T11:13:18;97983.41;;;-0.06;100.00
57628;BME280;43451;49.060;10.616;2023-02-15T11:15:51;97973.50;;;-0.05;100.00
57628;BME280;43451;49.060;10.616;2023-02-15T11:20:56;97974.56;;;0.13;100.00
57628;BME280;43451;49.060;10.616;2023-02-15T11:23:25;97966.63;;;0.08;100.00
57628;BME280;43451;49.060;10.616;2023-02-15T11:25:57;97963.88;;;0.13;100.00
57628;BME280;43451;49.060;10.616;2023-02-15T11:29:30;97972.56;;;0.05;100.00
57628;BME280;43451;49.060;10.616;2023-02-15T11:31:44;97963.41;;;0.25;100.00
57628;BME280;43451;49.060;10.616;2023-02-15T11:34:29;97966.47;;;0.18;100.00
57628;BME280;43451;49.060;10.616;2023-02-15T11:37:01;97956.78;;;0.22;100.00
57628;BME280;43451;49.060;10.616;2023-02-15T11:39:30;97945.00;;;0.23;100.00
57628;BME280;43451;49.060;10.616;2023-02-15T11:42:00;97958.41;;;0.37;100.00
57628;BME280;43451;49.060;10.616;2023-02-15T11:44:38;97946.53;;;0.57;100.00
57628;BME280;43451;49.060;10.616;2023-02-15T11:47:12;97942.41;;;0.64;100.00
57628;BME280;43451;49.060;10.616;2023-02-15T11:49:38;97932.69;;;0.82;100.00
57628;BME280;43451;49.060;10.616;2023-02-15T11:52:11;97942.41;;;0.78;100.00
57628;BME280;43451;49.060;10.616;2023-02-15T11:54:41;97941.41;;;1.02;100.00
57628;BME280;43451;49.060;10.616;2023-02-15T12:00:02;97929.63;;;0.89;100.00
57628;BME280;43451;49.060;10.616;2023-02-15T12:02:31;97930.31;;;0.95;100.00
57628;BME280;43451;49.060;10.616;2023-02-15T12:05:05;97922.56;;;1.21;100.00
57628;BME280;43451;49.060;10.616;2023-02-15T12:07:37;97926.72;;;1.13;100.00
57628;BME280;43451;49.060;10.616;2023-02-15T12:10:27;97911.50;;;0.86;100.00
57628;BME280;43451;49.060;10.616;2023-02-15T12:13:14;97919.41;;;0.91;100.00
57628;BME280;43451;49.060;10.616;2023-02-15T12:15:42;97901.94;;;1.07;100.00
57628;BME280;43451;49.060;10.616;2023-02-15T12:18:19;97909.69;;;1.09;100.00
57628;BME280;43451;49.060;10.616;2023-02-15T12:20:46;97905.50;;;1.16;100.00
57628;BME280;43451;49.060;10.616;2023-02-15T12:23:13;97901.53;;;1.28;100.00
57628;BME280;43451;49.060;10.616;2023-02-15T12:30:48;97913.84;;;1.51;100.00
57628;BME280;43451;49.060;10.616;2023-02-15T12:33:34;97907.00;;;1.59;100.00
57628;BME280;43451;49.060;10.616;2023-02-15T12:36:01;97903.94;;;1.52;100.00
57628;BME280;43451;49.060;10.616;2023-02-15T12:38:29;97899.06;;;1.54;100.00
57628;BME280;43451;49.060;10.616;2023-02-15T12:41:03;97891.91;;;1.63;100.00
57628;BME280;43451;49.060;10.616;2023-02-15T12:43:37;97902.00;;;1.66;100.00
57628;BME280;43451;49.060;10.616;2023-02-15T12:46:24;97885.34;;;1.69;100.00
57628;BME280;43451;49.060;10.616;2023-02-15T12:49:18;97887.03;;;1.88;100.00
57628;BME280;43451;49.060;10.616;2023-02-15T12:51:49;97879.84;;;1.97;100.00
57628;BME280;43451;49.060;10.616;2023-02-15T12:56:50;97882.22;;;1.98;100.00
57628;BME280;43451;49.060;10.616;2023-02-15T12:59:17;97891.78;;;1.91;100.00
57628;BME280;43451;49.060;10.616;2023-02-15T13:01:46;97893.53;;;1.73;100.00
57628;BME280;43451;49.060;10.616;2023-02-15T13:04:38;97883.56;;;1.65;100.00
57628;BME280;43451;49.060;10.616;2023-02-15T13:07:12;97876.44;;;1.60;100.00
57628;BME280;43451;49.060;10.616;2023-02-15T13:09:39;97880.50;;;1.57;100.00
57628;BME280;43451;49.060;10.616;2023-02-15T13:14:44;97881.06;;;1.91;100.00
57628;BME280;43451;49.060;10.616;2023-02-15T13:17:11;97873.94;;;1.86;100.00
57628;BME280;43451;49.060;10.616;2023-02-15T13:19:42;97877.22;;;1.83;100.00
57628;BME280;43451;49.060;10.616;2023-02-15T13:22:22;97865.59;;;1.88;100.00
57628;BME280;43451;49.060;10.616;2023-02-15T13:24:53;97868.50;;;1.77;100.00
57628;BME280;43451;49.060;10.616;2023-02-15T13:27:30;97860.84;;;1.84;100.00
57628;BME280;43451;49.060;10.616;2023-02-15T13:30:02;97857.31;;;1.98;100.00
57628;BME280;43451;49.060;10.616;2023-02-15T13:32:33;97855.25;;;1.95;100.00
57628;BME280;43451;49.060;10.616;2023-02-15T13:35:02;97860.72;;;1.90;100.00
57628;BME280;43451;49.060;10.616;2023-02-15T13:37:51;97867.69;;;1.99;100.00
57628;BME280;43451;49.060;10.616;2023-02-15T13:43:17;97855.81;;;2.14;100.00
57628;BME280;43451;49.060;10.616;2023-02-15T13:48:55;97856.47;;;2.20;100.00
57628;BME280;43451;49.060;10.616;2023-02-15T13:56:43;97854.91;;;2.27;100.00
57628;BME280;43451;49.060;10.616;2023-02-15T14:04:52;97863.75;;;2.28;100.00
57628;BME280;43451;49.060;10.616;2023-02-15T14:07:28;97866.97;;;2.39;100.00
57628;BME280;43451;49.060;10.616;2023-02-15T14:15:38;97864.28;;;2.39;100.00
57628;BME280;43451;49.060;10.616;2023-02-15T14:18:29;97861.13;;;2.37;100.00
57628;BME280;43451;49.060;10.616;2023-02-15T14:21:21;97859.06;;;2.33;100.00
57628;BME280;43451;49.060;10.616;2023-02-15T14:24:46;97851.84;;;2.43;100.00
57628;BME280;43451;49.060;10.616;2023-02-15T14:30:03;97838.56;;;2.86;100.00
57628;BME280;43451;49.060;10.616;2023-02-15T14:32:38;97837.88;;;2.72;100.00
57628;BME280;43451;49.060;10.616;2023-02-15T14:35:27;97840.00;;;2.92;100.00
57628;BME280;43451;49.060;10.616;2023-02-15T14:43:41;97834.16;;;2.99;100.00
57628;BME280;43451;49.060;10.616;2023-02-15T14:48:45;97841.28;;;3.12;100.00
57628;BME280;43451;49.060;10.616;2023-02-15T15:02:03;97839.38;;;3.21;100.00
57628;BME280;43451;49.060;10.616;2023-02-15T15:09:35;97839.38;;;3.21;100.00
57628;BME280;43451;49.060;10.616;2023-02-15T15:14:47;97834.66;;;3.27;100.00
57628;BME280;43451;49.060;10.616;2023-02-15T15:22:31;97834.31;;;3.20;100.00
57628;BME280;43451;49.060;10.616;2023-02-15T15:27:43;97825.16;;;3.12;100.00
57628;BME280;43451;49.060;10.616;2023-02-15T15:50:59;97813.41;;;2.65;100.00